sensor_id;sensor_type;location;lat;lon;timestamp;pressure;altitude;pressure_sealevel;temperature;humidity
41306;BME280;27051;50.376;19.152;2023-04-24T00:01:00;97327.58;;;13.15;47.85
41306;BME280;27051;50.376;19.152;2023-04-24T00:03:27;97327.73;;;13.13;48.01
41306;BME280;27051;50.376;19.152;2023-04-24T00:05:54;97328.95;;;13.10;48.11
41306;BME280;27051;50.376;19.152;2023-04-24T00:08:21;97321.70;;;13.11;48.05
41306;BME280;27051;50.376;19.152;2023-04-24T00:10:47;97320.09;;;13.13;48.06
41306;BME280;27051;50.376;19.152;2023-04-24T00:13:13;97316.67;;;13.10;48.15
41306;BME280;27051;50.376;19.152;2023-04-24T00:15:46;97317.48;;;13.05;48.15
41306;BME280;27051;50.376;19.152;2023-04-24T00:18:12;97314.96;;;13.08;48.28
41306;BME280;27051;50.376;19.152;2023-04-24T00:20:39;97315.33;;;13.05;48.14
41306;BME280;27051;50.376;19.152;2023-04-24T00:23:05;97313.16;;;13.05;48.26
41306;BME280;27051;50.376;19.152;2023-04-24T00:25:32;97310.48;;;13.06;48.26
41306;BME280;27051;50.376;19.152;2023-04-24T00:27:58;97311.86;;;13.05;48.42
41306;BME280;27051;50.376;19.152;2023-04-24T00:30:25;97309.72;;;12.97;48.58
41306;BME280;27051;50.376;19.152;2023-04-24T00:32:51;97307.34;;;12.88;48.60
41306;BME280;27051;50.376;19.152;2023-04-24T00:35:18;97303.29;;;12.82;48.74
41306;BME280;27051;50.376;19.152;2023-04-24T00:37:44;97300.17;;;12.78;48.90
41306;BME280;27051;50.376;19.152;2023-04-24T00:40:11;97298.52;;;12.72;49.11
41306;BME280;27051;50.376;19.152;2023-04-24T00:42:37;97291.36;;;12.66;49.21
41306;BME280;27051;50.376;19.152;2023-04-24T00:45:05;97291.05;;;12.65;49.35
41306;BME280;27051;50.376;19.152;2023-04-24T00:47:33;97285.56;;;12.63;49.51
41306;BME280;27051;50.376;19.152;2023-04-24T00:50:06;97284.18;;;12.55;49.50
41306;BME280;27051;50.376;19.152;2023-04-24T00:52:33;97281.77;;;12.53;49.81
41306;BME280;27051;50.376;19.152;2023-04-24T00:54:59;97279.45;;;12.52;49.97
41306;BME280;27051;50.376;19.152;2023-04-24T00:57:26;97274.84;;;12.52;49.99
41306;BME280;27051;50.376;19.152;2023-04-24T00:59:53;97273.20;;;12.50;49.90
41306;BME280;27051;50.376;19.152;2023-04-24T01:02:19;97270.57;;;12.49;49.92
41306;BME280;27051;50.376;19.152;2023-04-24T01:04:47;97268.14;;;12.45;50.24
41306;BME280;27051;50.376;19.152;2023-04-24T01:07:20;97269.13;;;12.42;50.26
41306;BME280;27051;50.376;19.152;2023-04-24T01:09:48;97261.66;;;12.35;50.41
41306;BME280;27051;50.376;19.152;2023-04-24T01:12:15;97262.65;;;12.33;50.51
41306;BME280;27051;50.376;19.152;2023-04-24T01:14:42;97258.56;;;12.33;50.50
41306;BME280;27051;50.376;19.152;2023-04-24T01:17:08;97262.73;;;12.33;50.53
41306;BME280;27051;50.376;19.152;2023-04-24T01:19:35;97263.52;;;12.28;50.59
41306;BME280;27051;50.376;19.152;2023-04-24T01:22:02;97264.55;;;12.23;50.63
41306;BME280;27051;50.376;19.152;2023-04-24T01:24:29;97263.16;;;12.22;50.79
41306;BME280;27051;50.376;19.152;2023-04-24T01:26:56;97263.11;;;12.19;50.97
41306;BME280;27051;50.376;19.152;2023-04-24T01:29:23;97260.10;;;12.17;51.09
41306;BME280;27051;50.376;19.152;2023-04-24T01:31:50;97259.84;;;12.14;51.11
41306;BME280;27051;50.376;19.152;2023-04-24T01:34:16;97256.83;;;12.14;51.10
41306;BME280;27051;50.376;19.152;2023-04-24T01:36:45;97253.23;;;12.14;51.21
41306;BME280;27051;50.376;19.152;2023-04-24T01:39:12;97251.33;;;12.10;51.33
41306;BME280;27051;50.376;19.152;2023-04-24T01:41:39;97248.29;;;12.07;51.39
41306;BME280;27051;50.376;19.152;2023-04-24T01:44:05;97248.60;;;12.06;51.40
41306;BME280;27051;50.376;19.152;2023-04-24T01:46:32;97247.30;;;12.00;51.33
41306;BME280;27051;50.376;19.152;2023-04-24T01:49:00;97243.17;;;11.95;51.56
41306;BME280;27051;50.376;19.152;2023-04-24T01:51:26;97237.45;;;11.92;51.62
41306;BME280;27051;50.376;19.152;2023-04-24T01:53:53;97230.92;;;11.88;51.63
41306;BME280;27051;50.376;19.152;2023-04-24T01:56:22;97232.94;;;11.84;51.76
41306;BME280;27051;50.376;19.152;2023-04-24T01:58:50;97234.77;;;11.82;51.85
41306;BME280;27051;50.376;19.152;2023-04-24T02:01:19;97235.48;;;11.77;51.86
41306;BME280;27051;50.376;19.152;2023-04-24T02:03:46;97230.39;;;11.69;51.94
41306;BME280;27051;50.376;19.152;2023-04-24T02:06:13;97227.95;;;11.63;52.05
41306;BME280;27051;50.376;19.152;2023-04-24T02:08:39;97226.89;;;11.59;52.06
41306;BME280;27051;50.376;19.152;2023-04-24T02:11:05;97223.44;;;11.53;52.16
41306;BME280;27051;50.376;19.152;2023-04-24T02:13:32;97223.24;;;11.50;52.35
41306;BME280;27051;50.376;19.152;2023-04-24T02:15:58;97221.50;;;11.52;52.31
41306;BME280;27051;50.376;19.152;2023-04-24T02:18:25;97222.36;;;11.53;52.30
41306;BME280;27051;50.376;19.152;2023-04-24T02:20:51;97216.73;;;11.45;52.47
41306;BME280;27051;50.376;19.152;2023-04-24T02:23:18;97213.92;;;11.42;52.37
41306;BME280;27051;50.376;19.152;2023-04-24T02:25:44;97207.46;;;11.41;52.44
41306;BME280;27051;50.376;19.152;2023-04-24T02:28:11;97210.64;;;11.38;52.34
41306;BME280;27051;50.376;19.152;2023-04-24T02:30:37;97208.11;;;11.33;52.45
41306;BME280;27051;50.376;19.152;2023-04-24T02:33:04;97204.64;;;11.31;52.39
41306;BME280;27051;50.376;19.152;2023-04-24T02:35:30;97201.84;;;11.30;52.40
41306;BME280;27051;50.376;19.152;2023-04-24T02:37:57;97198.86;;;11.23;52.40
41306;BME280;27051;50.376;19.152;2023-04-24T02:40:23;97198.05;;;11.21;52.50
41306;BME280;27051;50.376;19.152;2023-04-24T02:42:50;97200.99;;;11.23;52.46
41306;BME280;27051;50.376;19.152;2023-04-24T02:45:16;97197.89;;;11.21;52.37
41306;BME280;27051;50.376;19.152;2023-04-24T02:47:43;97203.48;;;11.20;52.28
41306;BME280;27051;50.376;19.152;2023-04-24T02:50:09;97201.36;;;11.21;52.16
41306;BME280;27051;50.376;19.152;2023-04-24T02:52:36;97198.63;;;11.18;52.13
41306;BME280;27051;50.376;19.152;2023-04-24T02:55:02;97197.27;;;11.14;52.17
41306;BME280;27051;50.376;19.152;2023-04-24T02:57:29;97197.75;;;11.10;52.27
41306;BME280;27051;50.376;19.152;2023-04-24T02:59:55;97197.48;;;11.01;52.35
41306;BME280;27051;50.376;19.152;2023-04-24T03:02:22;97197.18;;;10.96;52.36
41306;BME280;27051;50.376;19.152;2023-04-24T03:04:48;97195.75;;;10.92;52.39
41306;BME280;27051;50.376;19.152;2023-04-24T03:07:14;97199.77;;;10.88;52.39
41306;BME280;27051;50.376;19.152;2023-04-24T03:09:41;97199.96;;;10.86;52.38
41306;BME280;27051;50.376;19.152;2023-04-24T03:12:07;97199.71;;;10.84;52.52
41306;BME280;27051;50.376;19.152;2023-04-24T03:14:34;97201.00;;;10.83;52.43
41306;BME280;27051;50.376;19.152;2023-04-24T03:17:00;97198.56;;;10.85;52.64
41306;BME280;27051;50.376;19.152;2023-04-24T03:19:26;97195.63;;;10.90;52.55
41306;BME280;27051;50.376;19.152;2023-04-24T03:21:53;97193.54;;;10.94;52.52
41306;BME280;27051;50.376;19.152;2023-04-24T03:24:19;97193.63;;;11.00;52.41
41306;BME280;27051;50.376;19.152;2023-04-24T03:26:46;97194.09;;;11.06;52.09
41306;BME280;27051;50.376;19.152;2023-04-24T03:29:12;97190.45;;;11.10;51.65
41306;BME280;27051;50.376;19.152;2023-04-24T03:31:39;97191.53;;;11.17;51.46
41306;BME280;27051;50.376;19.152;2023-04-24T03:34:05;97188.67;;;11.21;51.59
41306;BME280;27051;50.376;19.152;2023-04-24T03:36:32;97190.17;;;11.24;51.76
41306;BME280;27051;50.376;19.152;2023-04-24T03:38:58;97187.81;;;11.25;52.18
41306;BME280;27051;50.376;19.152;2023-04-24T03:41:25;97188.39;;;11.28;52.16
41306;BME280;27051;50.376;19.152;2023-04-24T03:43:51;97187.43;;;11.26;52.11
41306;BME280;27051;50.376;19.152;2023-04-24T03:46:18;97188.90;;;11.21;51.91
41306;BME280;27051;50.376;19.152;2023-04-24T03:48:44;97189.70;;;11.18;52.05
41306;BME280;27051;50.376;19.152;2023-04-24T03:51:10;97193.10;;;11.19;52.30
41306;BME280;27051;50.376;19.152;2023-04-24T03:53:37;97190.70;;;11.18;52.15
41306;BME280;27051;50.376;19.152;2023-04-24T03:56:03;97192.65;;;11.19;52.10
41306;BME280;27051;50.376;19.152;2023-04-24T03:58:30;97193.58;;;11.20;52.18
41306;BME280;27051;50.376;19.152;2023-04-24T04:00:57;97196.09;;;11.24;52.16
41306;BME280;27051;50.376;19.152;2023-04-24T04:03:23;97195.56;;;11.25;52.24
41306;BME280;27051;50.376;19.152;2023-04-24T04:05:50;97198.44;;;11.27;52.35
41306;BME280;27051;50.376;19.152;2023-04-24T04:08:16;97195.11;;;11.32;52.39
41306;BME280;27051;50.376;19.152;2023-04-24T04:10:43;97196.27;;;11.38;52.32
41306;BME280;27051;50.376;19.152;2023-04-24T04:13:09;97194.11;;;11.37;52.34
41306;BME280;27051;50.376;19.152;2023-04-24T04:15:35;97191.39;;;11.41;52.34
41306;BME280;27051;50.376;19.152;2023-04-24T04:18:02;97189.60;;;11.46;52.34
41306;BME280;27051;50.376;19.152;2023-04-24T04:20:28;97191.42;;;11.50;52.39
41306;BME280;27051;50.376;19.152;2023-04-24T04:22:55;97192.69;;;11.54;52.34
41306;BME280;27051;50.376;19.152;2023-04-24T04:25:22;97196.52;;;11.66;52.34
41306;BME280;27051;50.376;19.152;2023-04-24T04:27:49;97196.23;;;11.74;51.78
41306;BME280;27051;50.376;19.152;2023-04-24T04:30:15;97189.85;;;11.82;51.25
41306;BME280;27051;50.376;19.152;2023-04-24T04:32:41;97190.14;;;11.93;50.93
41306;BME280;27051;50.376;19.152;2023-04-24T04:35:08;97189.17;;;12.03;50.66
41306;BME280;27051;50.376;19.152;2023-04-24T04:37:34;97188.24;;;12.13;50.40
41306;BME280;27051;50.376;19.152;2023-04-24T04:40:02;97189.34;;;12.23;50.36
41306;BME280;27051;50.376;19.152;2023-04-24T04:42:30;97186.37;;;12.33;49.96
41306;BME280;27051;50.376;19.152;2023-04-24T04:44:57;97186.89;;;12.41;49.55
41306;BME280;27051;50.376;19.152;2023-04-24T04:47:24;97186.18;;;12.49;49.52
41306;BME280;27051;50.376;19.152;2023-04-24T04:49:50;97188.57;;;12.60;49.26
41306;BME280;27051;50.376;19.152;2023-04-24T04:52:18;97190.64;;;12.69;49.11
41306;BME280;27051;50.376;19.152;2023-04-24T04:54:44;97188.69;;;12.77;48.88
41306;BME280;27051;50.376;19.152;2023-04-24T04:57:11;97191.36;;;12.86;48.71
41306;BME280;27051;50.376;19.152;2023-04-24T04:59:38;97193.26;;;12.93;48.55
41306;BME280;27051;50.376;19.152;2023-04-24T05:02:05;97189.98;;;13.00;48.36
41306;BME280;27051;50.376;19.152;2023-04-24T05:04:32;97190.80;;;13.08;48.22
41306;BME280;27051;50.376;19.152;2023-04-24T05:06:59;97188.01;;;13.19;48.20
41306;BME280;27051;50.376;19.152;2023-04-24T05:09:26;97188.38;;;13.26;48.09
41306;BME280;27051;50.376;19.152;2023-04-24T05:11:53;97188.71;;;13.32;48.23
41306;BME280;27051;50.376;19.152;2023-04-24T05:14:20;97189.88;;;13.33;47.53
41306;BME280;27051;50.376;19.152;2023-04-24T05:16:47;97193.96;;;13.35;47.64
41306;BME280;27051;50.376;19.152;2023-04-24T05:19:13;97191.45;;;13.39;47.54
41306;BME280;27051;50.376;19.152;2023-04-24T05:21:40;97194.70;;;13.43;47.49
41306;BME280;27051;50.376;19.152;2023-04-24T05:24:10;97193.41;;;13.52;47.44
41306;BME280;27051;50.376;19.152;2023-04-24T05:26:37;97194.00;;;13.60;47.20
41306;BME280;27051;50.376;19.152;2023-04-24T05:29:03;97189.94;;;13.70;47.08
41306;BME280;27051;50.376;19.152;2023-04-24T05:31:30;97190.66;;;13.80;46.98
41306;BME280;27051;50.376;19.152;2023-04-24T05:33:56;97191.00;;;13.91;46.99
41306;BME280;27051;50.376;19.152;2023-04-24T05:36:23;97190.56;;;14.05;46.66
41306;BME280;27051;50.376;19.152;2023-04-24T05:38:49;97191.35;;;14.16;46.19
41306;BME280;27051;50.376;19.152;2023-04-24T05:41:15;97185.88;;;14.27;46.06
41306;BME280;27051;50.376;19.152;2023-04-24T05:43:42;97183.80;;;14.39;46.12
41306;BME280;27051;50.376;19.152;2023-04-24T05:46:08;97183.89;;;14.52;46.26
41306;BME280;27051;50.376;19.152;2023-04-24T05:48:35;97183.28;;;14.65;45.92
41306;BME280;27051;50.376;19.152;2023-04-24T05:51:02;97183.73;;;14.75;45.58
41306;BME280;27051;50.376;19.152;2023-04-24T05:53:29;97181.24;;;14.87;45.65
41306;BME280;27051;50.376;19.152;2023-04-24T05:55:55;97181.98;;;14.98;45.44
41306;BME280;27051;50.376;19.152;2023-04-24T05:58:21;97179.58;;;15.08;45.11
41306;BME280;27051;50.376;19.152;2023-04-24T06:00:48;97174.30;;;15.17;44.94
41306;BME280;27051;50.376;19.152;2023-04-24T06:03:16;97176.20;;;15.26;44.83
41306;BME280;27051;50.376;19.152;2023-04-24T06:05:43;97175.93;;;15.36;44.61
41306;BME280;27051;50.376;19.152;2023-04-24T06:08:10;97176.52;;;15.46;44.71
41306;BME280;27051;50.376;19.152;2023-04-24T06:10:37;97173.92;;;15.53;44.33
41306;BME280;27051;50.376;19.152;2023-04-24T06:13:03;97172.81;;;15.60;44.35
41306;BME280;27051;50.376;19.152;2023-04-24T06:15:30;97173.70;;;15.73;44.19
41306;BME280;27051;50.376;19.152;2023-04-24T06:17:57;97172.18;;;15.82;44.15
41306;BME280;27051;50.376;19.152;2023-04-24T06:20:25;97168.72;;;15.93;43.99
41306;BME280;27051;50.376;19.152;2023-04-24T06:22:52;97167.72;;;16.04;43.67
41306;BME280;27051;50.376;19.152;2023-04-24T06:25:19;97168.27;;;16.15;43.46
41306;BME280;27051;50.376;19.152;2023-04-24T06:27:46;97169.64;;;16.29;43.44
41306;BME280;27051;50.376;19.152;2023-04-24T06:30:13;97164.89;;;16.41;43.11
41306;BME280;27051;50.376;19.152;2023-04-24T06:32:39;97162.73;;;16.48;42.32
41306;BME280;27051;50.376;19.152;2023-04-24T06:35:06;97165.29;;;16.58;42.06
41306;BME280;27051;50.376;19.152;2023-04-24T06:37:34;97161.27;;;16.67;41.77
41306;BME280;27051;50.376;19.152;2023-04-24T06:40:00;97158.02;;;16.74;42.21
41306;BME280;27051;50.376;19.152;2023-04-24T06:42:28;97154.80;;;16.82;41.17
41306;BME280;27051;50.376;19.152;2023-04-24T06:44:54;97151.46;;;16.88;40.83
41306;BME280;27051;50.376;19.152;2023-04-24T06:47:21;97154.42;;;16.95;40.67
41306;BME280;27051;50.376;19.152;2023-04-24T06:49:47;97155.42;;;17.04;40.57
41306;BME280;27051;50.376;19.152;2023-04-24T06:52:14;97151.58;;;17.14;39.94
41306;BME280;27051;50.376;19.152;2023-04-24T06:54:41;97150.79;;;17.23;39.68
41306;BME280;27051;50.376;19.152;2023-04-24T06:57:08;97149.72;;;17.34;39.27
41306;BME280;27051;50.376;19.152;2023-04-24T06:59:34;97148.02;;;17.47;39.59
41306;BME280;27051;50.376;19.152;2023-04-24T07:02:01;97147.94;;;17.59;39.16
41306;BME280;27051;50.376;19.152;2023-04-24T07:04:29;97146.91;;;17.72;39.34
41306;BME280;27051;50.376;19.152;2023-04-24T07:06:56;97150.40;;;17.87;39.07
41306;BME280;27051;50.376;19.152;2023-04-24T07:09:23;97148.17;;;18.01;38.97
41306;BME280;27051;50.376;19.152;2023-04-24T07:11:50;97144.35;;;18.16;38.71
41306;BME280;27051;50.376;19.152;2023-04-24T07:14:17;97147.23;;;18.31;38.16
41306;BME280;27051;50.376;19.152;2023-04-24T07:16:44;97144.86;;;18.44;38.21
41306;BME280;27051;50.376;19.152;2023-04-24T07:19:12;97141.31;;;18.51;38.14
41306;BME280;27051;50.376;19.152;2023-04-24T07:21:39;97140.67;;;18.62;38.25
41306;BME280;27051;50.376;19.152;2023-04-24T07:24:06;97136.72;;;18.75;36.97
41306;BME280;27051;50.376;19.152;2023-04-24T07:26:33;97138.73;;;18.85;37.47
41306;BME280;27051;50.376;19.152;2023-04-24T07:28:59;97137.79;;;18.98;37.18
41306;BME280;27051;50.376;19.152;2023-04-24T07:31:26;97136.52;;;19.11;36.26
41306;BME280;27051;50.376;19.152;2023-04-24T07:33:54;97132.52;;;19.21;36.64
41306;BME280;27051;50.376;19.152;2023-04-24T07:36:20;97130.52;;;19.32;36.14
41306;BME280;27051;50.376;19.152;2023-04-24T07:38:47;97126.98;;;19.41;35.78
41306;BME280;27051;50.376;19.152;2023-04-24T07:41:14;97125.36;;;19.52;35.13
41306;BME280;27051;50.376;19.152;2023-04-24T07:43:41;97125.75;;;19.62;35.21
41306;BME280;27051;50.376;19.152;2023-04-24T07:46:08;97118.02;;;19.75;35.55
41306;BME280;27051;50.376;19.152;2023-04-24T07:48:35;97116.55;;;19.92;35.55
41306;BME280;27051;50.376;19.152;2023-04-24T07:51:02;97119.58;;;20.06;34.50
41306;BME280;27051;50.376;19.152;2023-04-24T07:53:29;97117.93;;;20.17;34.12
41306;BME280;27051;50.376;19.152;2023-04-24T07:55:58;97120.64;;;20.28;33.67
41306;BME280;27051;50.376;19.152;2023-04-24T07:58:24;97118.70;;;20.37;34.15
41306;BME280;27051;50.376;19.152;2023-04-24T08:00:51;97117.75;;;20.50;34.92
41306;BME280;27051;50.376;19.152;2023-04-24T08:03:17;97114.84;;;20.70;34.58
41306;BME280;27051;50.376;19.152;2023-04-24T08:05:44;97116.65;;;20.84;34.16
41306;BME280;27051;50.376;19.152;2023-04-24T08:08:10;97113.19;;;20.94;33.47
41306;BME280;27051;50.376;19.152;2023-04-24T08:10:37;97113.31;;;21.01;33.10
41306;BME280;27051;50.376;19.152;2023-04-24T08:13:03;97109.45;;;21.08;33.73
41306;BME280;27051;50.376;19.152;2023-04-24T08:15:29;97109.42;;;21.12;33.35
41306;BME280;27051;50.376;19.152;2023-04-24T08:17:57;97107.39;;;21.12;33.30
41306;BME280;27051;50.376;19.152;2023-04-24T08:20:23;97107.52;;;21.27;33.24
41306;BME280;27051;50.376;19.152;2023-04-24T08:22:49;97103.41;;;21.43;32.58
41306;BME280;27051;50.376;19.152;2023-04-24T08:25:16;97095.27;;;21.57;33.02
41306;BME280;27051;50.376;19.152;2023-04-24T08:27:43;97097.50;;;21.74;32.84
41306;BME280;27051;50.376;19.152;2023-04-24T08:30:10;97096.81;;;21.89;32.07
41306;BME280;27051;50.376;19.152;2023-04-24T08:32:36;97091.98;;;22.03;32.06
41306;BME280;27051;50.376;19.152;2023-04-24T08:35:03;97096.23;;;22.15;32.11
41306;BME280;27051;50.376;19.152;2023-04-24T08:37:30;97097.80;;;22.30;31.98
41306;BME280;27051;50.376;19.152;2023-04-24T08:39:56;97088.09;;;22.42;32.08
41306;BME280;27051;50.376;19.152;2023-04-24T08:42:23;97089.91;;;22.57;31.74
41306;BME280;27051;50.376;19.152;2023-04-24T08:44:49;97080.14;;;22.78;31.22
41306;BME280;27051;50.376;19.152;2023-04-24T08:47:16;97081.48;;;22.91;29.79
41306;BME280;27051;50.376;19.152;2023-04-24T08:49:44;97085.48;;;22.95;29.88
41306;BME280;27051;50.376;19.152;2023-04-24T08:52:12;97085.56;;;23.05;29.79
41306;BME280;27051;50.376;19.152;2023-04-24T08:54:39;97081.79;;;23.20;29.47
41306;BME280;27051;50.376;19.152;2023-04-24T08:57:07;97079.11;;;23.31;29.24
41306;BME280;27051;50.376;19.152;2023-04-24T08:59:33;97079.09;;;23.38;29.03
41306;BME280;27051;50.376;19.152;2023-04-24T09:02:02;97073.52;;;23.48;29.30
41306;BME280;27051;50.376;19.152;2023-04-24T09:04:29;97074.31;;;23.71;29.66
41306;BME280;27051;50.376;19.152;2023-04-24T09:06:57;97073.20;;;23.90;28.81
41306;BME280;27051;50.376;19.152;2023-04-24T09:09:25;97069.39;;;23.99;29.11
41306;BME280;27051;50.376;19.152;2023-04-24T09:11:52;97070.29;;;24.22;29.45
41306;BME280;27051;50.376;19.152;2023-04-24T09:14:19;97067.24;;;24.54;29.10
41306;BME280;27051;50.376;19.152;2023-04-24T09:16:46;97071.05;;;24.81;29.31
41306;BME280;27051;50.376;19.152;2023-04-24T09:19:13;97068.30;;;25.04;28.39
41306;BME280;27051;50.376;19.152;2023-04-24T09:21:39;97067.08;;;25.20;28.05
41306;BME280;27051;50.376;19.152;2023-04-24T09:24:14;97064.19;;;25.50;27.61
41306;BME280;27051;50.376;19.152;2023-04-24T09:26:42;97057.98;;;25.87;27.50
41306;BME280;27051;50.376;19.152;2023-04-24T09:29:18;97060.37;;;26.23;26.54
41306;BME280;27051;50.376;19.152;2023-04-24T09:31:45;97056.99;;;26.45;25.96
41306;BME280;27051;50.376;19.152;2023-04-24T09:34:20;97053.33;;;26.68;26.06
41306;BME280;27051;50.376;19.152;2023-04-24T09:36:47;97058.38;;;27.04;25.38
41306;BME280;27051;50.376;19.152;2023-04-24T09:39:15;97050.95;;;27.26;25.28
41306;BME280;27051;50.376;19.152;2023-04-24T09:41:50;97045.98;;;27.58;25.07
41306;BME280;27051;50.376;19.152;2023-04-24T09:44:21;97045.00;;;27.85;24.59
41306;BME280;27051;50.376;19.152;2023-04-24T09:46:51;97044.63;;;28.05;24.55
41306;BME280;27051;50.376;19.152;2023-04-24T09:49:28;97039.37;;;28.13;23.93
41306;BME280;27051;50.376;19.152;2023-04-24T09:52:11;97034.18;;;28.17;24.02
41306;BME280;27051;50.376;19.152;2023-04-24T09:54:38;97035.11;;;28.32;23.90
41306;BME280;27051;50.376;19.152;2023-04-24T09:57:06;97033.35;;;28.43;23.24
41306;BME280;27051;50.376;19.152;2023-04-24T09:59:33;97035.10;;;28.50;22.43
41306;BME280;27051;50.376;19.152;2023-04-24T10:02:00;97034.20;;;28.59;22.05
41306;BME280;27051;50.376;19.152;2023-04-24T10:04:28;97028.48;;;28.71;21.97
41306;BME280;27051;50.376;19.152;2023-04-24T10:06:56;97030.84;;;28.90;22.10
41306;BME280;27051;50.376;19.152;2023-04-24T10:09:25;97023.32;;;29.12;21.84
41306;BME280;27051;50.376;19.152;2023-04-24T10:11:53;97023.64;;;29.44;21.64
41306;BME280;27051;50.376;19.152;2023-04-24T10:14:22;97023.40;;;29.83;21.38
41306;BME280;27051;50.376;19.152;2023-04-24T10:16:50;97013.85;;;30.25;21.00
41306;BME280;27051;50.376;19.152;2023-04-24T10:19:18;97017.55;;;30.73;20.47
41306;BME280;27051;50.376;19.152;2023-04-24T10:21:45;97017.05;;;31.18;20.58
41306;BME280;27051;50.376;19.152;2023-04-24T10:24:16;97012.98;;;31.69;20.37
41306;BME280;27051;50.376;19.152;2023-04-24T10:26:44;97014.92;;;32.25;19.66
41306;BME280;27051;50.376;19.152;2023-04-24T10:29:17;97007.63;;;32.56;19.43
41306;BME280;27051;50.376;19.152;2023-04-24T10:31:46;97011.88;;;32.64;17.93
41306;BME280;27051;50.376;19.152;2023-04-24T10:34:14;97005.91;;;32.54;18.45
41306;BME280;27051;50.376;19.152;2023-04-24T10:36:46;97004.04;;;32.64;18.55
41306;BME280;27051;50.376;19.152;2023-04-24T10:39:16;97003.14;;;32.61;17.70
41306;BME280;27051;50.376;19.152;2023-04-24T10:41:49;97004.40;;;32.52;17.97
41306;BME280;27051;50.376;19.152;2023-04-24T10:44:16;97001.33;;;32.38;18.10
41306;BME280;27051;50.376;19.152;2023-04-24T10:46:46;96995.67;;;32.46;17.96
41306;BME280;27051;50.376;19.152;2023-04-24T10:49:27;96993.95;;;32.60;17.52
41306;BME280;27051;50.376;19.152;2023-04-24T10:52:02;96994.50;;;32.38;17.47
41306;BME280;27051;50.376;19.152;2023-04-24T10:54:34;96991.22;;;32.14;17.73
41306;BME280;27051;50.376;19.152;2023-04-24T10:59:47;96993.53;;;31.18;17.80
41306;BME280;27051;50.376;19.152;2023-04-24T11:02:15;96990.55;;;30.91;18.01
41306;BME280;27051;50.376;19.152;2023-04-24T11:04:42;96985.48;;;30.61;18.18
41306;BME280;27051;50.376;19.152;2023-04-24T11:07:10;96988.20;;;30.22;18.37
41306;BME280;27051;50.376;19.152;2023-04-24T11:09:37;96990.35;;;29.79;18.59
41306;BME280;27051;50.376;19.152;2023-04-24T11:12:08;96987.91;;;29.33;18.58
41306;BME280;27051;50.376;19.152;2023-04-24T11:15:00;96985.60;;;28.85;18.70
41306;BME280;27051;50.376;19.152;2023-04-24T11:17:36;96984.67;;;28.57;18.67
41306;BME280;27051;50.376;19.152;2023-04-24T11:20:17;96986.33;;;28.62;19.03
41306;BME280;27051;50.376;19.152;2023-04-24T11:22:43;96989.07;;;28.80;18.03
41306;BME280;27051;50.376;19.152;2023-04-24T11:25:10;96989.66;;;28.95;18.60
41306;BME280;27051;50.376;19.152;2023-04-24T11:27:41;96986.30;;;28.96;18.48
41306;BME280;27051;50.376;19.152;2023-04-24T11:30:09;96988.26;;;28.64;18.61
41306;BME280;27051;50.376;19.152;2023-04-24T11:32:40;96990.55;;;28.27;18.76
41306;BME280;27051;50.376;19.152;2023-04-24T11:37:53;96998.05;;;27.33;19.01
41306;BME280;27051;50.376;19.152;2023-04-24T11:40:21;96997.45;;;26.94;19.49
41306;BME280;27051;50.376;19.152;2023-04-24T11:42:49;97003.40;;;26.62;19.73
41306;BME280;27051;50.376;19.152;2023-04-24T11:45:18;97003.39;;;26.11;20.97
41306;BME280;27051;50.376;19.152;2023-04-24T11:47:44;97005.89;;;25.60;21.54
41306;BME280;27051;50.376;19.152;2023-04-24T11:50:13;97005.55;;;25.14;21.82
41306;BME280;27051;50.376;19.152;2023-04-24T11:52:41;97007.93;;;24.72;22.94
41306;BME280;27051;50.376;19.152;2023-04-24T11:57:50;97008.86;;;23.77;23.92
41306;BME280;27051;50.376;19.152;2023-04-24T12:00:18;97011.52;;;23.47;24.71
41306;BME280;27051;50.376;19.152;2023-04-24T12:02:45;97014.71;;;23.21;25.10
41306;BME280;27051;50.376;19.152;2023-04-24T12:05:22;97013.31;;;22.97;25.62
41306;BME280;27051;50.376;19.152;2023-04-24T12:07:49;97013.50;;;22.70;25.77
41306;BME280;27051;50.376;19.152;2023-04-24T12:10:23;97006.23;;;22.52;26.06
41306;BME280;27051;50.376;19.152;2023-04-24T12:12:50;97005.91;;;22.39;26.53
41306;BME280;27051;50.376;19.152;2023-04-24T12:15:18;97005.44;;;22.27;26.88
41306;BME280;27051;50.376;19.152;2023-04-24T12:17:45;97004.34;;;22.16;26.81
41306;BME280;27051;50.376;19.152;2023-04-24T12:20:13;96999.08;;;22.11;26.93
41306;BME280;27051;50.376;19.152;2023-04-24T12:23:01;96994.73;;;22.08;27.37
41306;BME280;27051;50.376;19.152;2023-04-24T12:25:29;97000.47;;;22.05;27.53
41306;BME280;27051;50.376;19.152;2023-04-24T12:30:31;96996.88;;;22.19;27.93
41306;BME280;27051;50.376;19.152;2023-04-24T12:32:58;96993.44;;;22.28;28.24
41306;BME280;27051;50.376;19.152;2023-04-24T12:35:27;96991.98;;;22.32;27.88
41306;BME280;27051;50.376;19.152;2023-04-24T12:37:54;96985.02;;;22.53;27.89
41306;BME280;27051;50.376;19.152;2023-04-24T12:40:22;96980.05;;;23.22;27.81
41306;BME280;27051;50.376;19.152;2023-04-24T12:42:51;96978.70;;;24.92;26.76
41306;BME280;27051;50.376;19.152;2023-04-24T12:45:18;96975.39;;;25.91;26.31
41306;BME280;27051;50.376;19.152;2023-04-24T12:47:45;96979.36;;;26.34;25.47
41306;BME280;27051;50.376;19.152;2023-04-24T12:50:14;96978.52;;;26.30;24.98
41306;BME280;27051;50.376;19.152;2023-04-24T12:52:41;96988.18;;;26.27;25.58
41306;BME280;27051;50.376;19.152;2023-04-24T12:55:09;96984.16;;;25.69;25.94
41306;BME280;27051;50.376;19.152;2023-04-24T12:57:37;96990.10;;;24.98;26.78
41306;BME280;27051;50.376;19.152;2023-04-24T13:00:06;96989.34;;;24.27;27.13
41306;BME280;27051;50.376;19.152;2023-04-24T13:02:33;96990.52;;;23.84;27.50